Time;durP1;ratioP1;P1;durP2;ratioP2;P2;SDS_P1;SDS_P2;PMS_P1;PMS_P2;Temp;Humidity;BMP_temperature;BMP_pressure;BME280_temperature;BME280_humidity;BME280_pressure;Samples;Min_cycle;Max_cycle;Signal;HPM_P1;HPM_P2
2023/03/18 00:02:31;;;;;;;5.10;2.40;;;;;;;;;;10565076;27;20043;-81
2023/03/18 00:07:41;;;;;;;9.75;4.68;;;;;;;;;;10567486;27;20040;-79
2023/03/18 00:12:45;;;;;;;12.07;4.77;;;;;;;;;;10557404;28;20043;-80
2023/03/18 00:17:58;;;;;;;11.70;5.15;;;;;;;;;;10565813;28;20293;-79
2023/03/18 00:23:02;;;;;;;6.30;1.63;;;;;;;;;;10551732;28;20058;-78
2023/03/18 00:28:10;;;;;;;9.38;4.53;;;;;;;;;;10578112;28;20135;-80
2023/03/18 00:33:16;;;;;;;11.20;4.75;;;;;;;;;;10569087;28;20083;-78
2023/03/18 00:38:21;;;;;;;10.63;5.15;;;;;;;;;;10600692;28;20044;-78
2023/03/18 00:43:28;;;;;;;10.23;4.72;;;;;;;;;;10588359;28;20043;-78
2023/03/18 00:48:37;;;;;;;9.88;4.43;;;;;;;;;;10593177;28;20032;-78
2023/03/18 00:53:41;;;;;;;7.95;3.92;;;;;;;;;;10574467;27;20035;-79
2023/03/18 00:58:45;;;;;;;8.80;4.13;;;;;;;;;;10548572;27;20470;-79
2023/03/18 01:03:50;;;;;;;12.98;3.88;;;;;;;;;;10582378;27;20039;-81
2023/03/18 01:08:55;;;;;;;10.10;4.05;;;;;;;;;;10570065;27;20036;-80
2023/03/18 01:13:59;;;;;;;12.35;4.82;;;;;;;;;;10587384;27;20036;-80
2023/03/18 01:19:08;;;;;;;8.52;3.75;;;;;;;;;;10575033;27;20035;-79
2023/03/18 01:24:22;;;;;;;9.77;4.03;;;;;;;;;;10577570;28;20035;-80
2023/03/18 01:29:29;;;;;;;10.05;3.97;;;;;;;;;;10566869;27;20036;-79
2023/03/18 01:34:36;;;;;;;8.63;3.70;;;;;;;;;;10556446;27;20052;-79
2023/03/18 01:39:39;;;;;;;11.07;4.38;;;;;;;;;;10580910;27;20393;-80
2023/03/18 01:44:45;;;;;;;10.77;3.85;;;;;;;;;;10549377;27;20043;-80
2023/03/18 01:49:52;;;;;;;6.13;3.13;;;;;;;;;;10559885;28;20035;-80
2023/03/18 01:54:56;;;;;;;7.82;3.75;;;;;;;;;;10600518;27;20103;-80
2023/03/18 02:00:00;;;;;;;4.55;2.38;;;;;;;;;;10619251;27;20028;-81
2023/03/18 02:05:07;;;;;;;8.32;3.85;;;;;;;;;;10593882;27;20044;-80
2023/03/18 02:10:15;;;;;;;6.65;2.20;;;;;;;;;;10560635;28;20485;-80
2023/03/18 02:15:24;;;;;;;9.20;4.28;;;;;;;;;;10564668;27;20043;-81
2023/03/18 02:20:38;;;;;;;8.45;3.78;;;;;;;;;;10539702;27;20040;-78
2023/03/18 02:25:49;;;;;;;4.53;2.35;;;;;;;;;;10539328;28;20567;-78
2023/03/18 02:30:56;;;;;;;9.13;3.70;;;;;;;;;;10545843;27;20119;-80
2023/03/18 02:36:02;;;;;;;5.57;2.90;;;;;;;;;;10557537;28;20576;-78
2023/03/18 02:41:16;;;;;;;8.32;3.40;;;;;;;;;;10551124;28;20122;-78
2023/03/18 02:46:36;;;;;;;8.30;3.10;;;;;;;;;;10554582;28;20097;-78
2023/03/18 02:51:40;;;;;;;3.22;1.48;;;;;;;;;;10539154;27;20061;-77
2023/03/18 02:56:45;;;;;;;8.52;3.33;;;;;;;;;;10551740;28;20043;-78
2023/03/18 03:01:51;;;;;;;6.32;2.63;;;;;;;;;;10534439;28;20052;-77
2023/03/18 03:06:56;;;;;;;8.05;2.92;;;;;;;;;;10559809;27;20039;-78
2023/03/18 03:11:59;;;;;;;2.53;0.98;;;;;;;;;;10554481;27;20086;-79
2023/03/18 03:17:05;;;;;;;5.28;1.85;;;;;;;;;;10543745;28;20386;-78
2023/03/18 03:22:10;;;;;;;9.07;2.67;;;;;;;;;;10553708;27;20048;-79
2023/03/18 03:27:17;;;;;;;4.80;1.52;;;;;;;;;;10555385;27;20055;-79
2023/03/18 03:32:26;;;;;;;5.60;2.72;;;;;;;;;;10552152;27;20579;-79
2023/03/18 03:37:39;;;;;;;5.47;2.38;;;;;;;;;;10548462;28;20031;-79
2023/03/18 03:42:42;;;;;;;6.83;3.00;;;;;;;;;;10540182;28;20047;-79
2023/03/18 03:47:47;;;;;;;9.05;3.47;;;;;;;;;;10540326;28;20051;-81
2023/03/18 03:52:50;;;;;;;4.13;2.10;;;;;;;;;;10557974;27;20092;-79
2023/03/18 03:57:54;;;;;;;4.97;2.28;;;;;;;;;;10536093;28;20036;-79
2023/03/18 04:02:59;;;;;;;7.13;2.65;;;;;;;;;;10522447;27;20436;-80
2023/03/18 04:08:03;;;;;;;6.00;2.50;;;;;;;;;;10554900;28;20451;-78
2023/03/18 04:13:07;;;;;;;3.97;2.23;;;;;;;;;;10534449;27;20085;-81
2023/03/18 04:18:13;;;;;;;6.45;1.85;;;;;;;;;;10543330;28;20399;-79
2023/03/18 04:23:18;;;;;;;4.82;2.40;;;;;;;;;;10548148;28;20085;-79
2023/03/18 04:28:21;;;;;;;3.22;1.90;;;;;;;;;;10522737;28;20042;-80
2023/03/18 04:33:28;;;;;;;4.32;2.10;;;;;;;;;;10537089;27;20126;-80
2023/03/18 04:38:33;;;;;;;5.13;2.13;;;;;;;;;;10535347;28;20043;-79
2023/03/18 04:43:36;;;;;;;5.97;2.60;;;;;;;;;;10551934;28;20520;-78
2023/03/18 04:48:41;;;;;;;6.25;2.65;;;;;;;;;;10541843;28;20134;-81
2023/03/18 04:53:45;;;;;;;6.20;2.30;;;;;;;;;;10560953;28;20449;-82
2023/03/18 04:58:51;;;;;;;5.88;2.80;;;;;;;;;;10549745;28;20132;-80
2023/03/18 05:03:58;;;;;;;5.10;1.60;;;;;;;;;;10547855;28;20126;-79
2023/03/18 05:09:05;;;;;;;4.30;1.50;;;;;;;;;;10547326;28;20028;-83
2023/03/18 05:14:09;;;;;;;4.30;1.98;;;;;;;;;;10560665;28;20092;-78
2023/03/18 05:19:18;;;;;;;2.25;1.13;;;;;;;;;;10555959;28;20108;-77
2023/03/18 05:24:21;;;;;;;3.67;1.77;;;;;;;;;;10550754;28;20039;-79
2023/03/18 05:29:37;;;;;;;2.33;1.30;;;;;;;;;;10562986;28;20365;-78
2023/03/18 05:34:44;;;;;;;5.57;1.67;;;;;;;;;;10569995;28;20123;-77
2023/03/18 05:39:46;;;;;;;;;;;;;;;;;;10576639;27;20122;-78
2023/03/18 05:44:49;;;;;;;1.88;0.80;;;;;;;;;;10566202;27;20393;-76
2023/03/18 05:49:56;;;;;;;3.33;1.50;;;;;;;;;;10561881;27;20031;-76
2023/03/18 05:55:01;;;;;;;3.03;1.25;;;;;;;;;;10564351;27;20047;-79
2023/03/18 06:00:07;;;;;;;4.70;1.98;;;;;;;;;;10575437;28;20032;-79
2023/03/18 06:05:15;;;;;;;1.20;0.77;;;;;;;;;;10552395;27;20042;-80
2023/03/18 06:10:18;;;;;;;4.80;1.60;;;;;;;;;;10570122;28;20040;-80
2023/03/18 06:15:23;;;;;;;4.07;1.90;;;;;;;;;;10549776;27;20047;-80
2023/03/18 06:20:32;;;;;;;3.85;1.90;;;;;;;;;;10546181;27;20046;-80
2023/03/18 06:25:37;;;;;;;4.38;2.22;;;;;;;;;;10570591;28;20085;-82
2023/03/18 06:30:40;;;;;;;4.32;2.20;;;;;;;;;;10565993;27;20469;-81
2023/03/18 06:36:01;;;;;;;3.63;2.00;;;;;;;;;;10570799;28;20532;-87
2023/03/18 06:41:09;;;;;;;4.88;2.22;;;;;;;;;;10530746;27;20081;-79
2023/03/18 06:46:13;;;;;;;7.15;1.90;;;;;;;;;;10546648;27;20485;-77
2023/03/18 06:51:19;;;;;;;4.97;2.20;;;;;;;;;;10543802;27;20339;-78
2023/03/18 06:56:24;;;;;;;5.45;2.30;;;;;;;;;;10561356;27;20038;-78
2023/03/18 07:01:31;;;;;;;4.95;2.00;;;;;;;;;;10543743;27;20035;-80
2023/03/18 07:06:40;;;;;;;7.82;2.50;;;;;;;;;;10540949;27;20051;-79
2023/03/18 07:11:49;;;;;;;4.90;2.65;;;;;;;;;;10556350;27;20063;-79
2023/03/18 07:16:52;;;;;;;5.55;1.98;;;;;;;;;;10522098;28;20039;-79
2023/03/18 07:21:58;;;;;;;5.47;2.50;;;;;;;;;;10545260;27;20036;-79
2023/03/18 07:27:05;;;;;;;7.65;2.92;;;;;;;;;;10551323;27;20051;-81
2023/03/18 07:32:09;;;;;;;5.47;2.58;;;;;;;;;;10532327;28;20904;-79
2023/03/18 07:37:19;;;;;;;2.22;1.50;;;;;;;;;;10541910;27;20039;-82
2023/03/18 07:42:22;;;;;;;4.03;2.00;;;;;;;;;;10566504;27;20504;-81
2023/03/18 07:47:26;;;;;;;4.65;2.30;;;;;;;;;;10563658;27;20050;-82
2023/03/18 07:52:32;;;;;;;6.03;2.53;;;;;;;;;;10541329;27;20447;-83
2023/03/18 07:57:35;;;;;;;5.30;2.55;;;;;;;;;;10566175;27;20369;-81
2023/03/18 08:02:41;;;;;;;4.28;2.70;;;;;;;;;;10538785;28;20106;-81
2023/03/18 08:07:52;;;;;;;4.50;1.70;;;;;;;;;;10530727;27;20036;-82
2023/03/18 08:12:55;;;;;;;6.88;2.58;;;;;;;;;;10566306;28;20036;-81
2023/03/18 08:18:01;;;;;;;3.70;1.93;;;;;;;;;;10562983;28;20039;-81
2023/03/18 08:23:08;;;;;;;9.30;4.00;;;;;;;;;;10543230;28;20504;-82
2023/03/18 08:28:12;;;;;;;7.75;2.78;;;;;;;;;;10549640;28;20100;-81
2023/03/18 08:33:15;;;;;;;;;;;;;;;;;;10523586;28;20066;-82
2023/03/18 08:38:22;;;;;;;8.52;2.97;;;;;;;;;;10544255;27;19919;-82
2023/03/18 08:43:27;;;;;;;7.20;2.10;;;;;;;;;;10558584;28;20040;-83
2023/03/18 08:48:33;;;;;;;4.47;2.25;;;;;;;;;;10532667;28;20036;-85
2023/03/18 08:53:38;;;;;;;7.47;2.42;;;;;;;;;;10542115;28;20055;-82
2023/03/18 08:58:47;;;;;;;4.82;2.50;;;;;;;;;;10534067;28;20479;-80
2023/03/18 09:03:49;;;;;;;5.60;2.72;;;;;;;;;;10529857;28;20039;-79
2023/03/18 09:08:55;;;;;;;4.53;2.10;;;;;;;;;;10537704;28;20080;-81
2023/03/18 09:14:06;;;;;;;7.85;2.83;;;;;;;;;;10548471;28;20043;-80
2023/03/18 09:19:09;;;;;;;4.60;2.00;;;;;;;;;;10554263;28;20135;-80
2023/03/18 09:24:15;;;;;;;4.97;2.22;;;;;;;;;;10566495;27;20531;-80
2023/03/18 09:29:19;;;;;;;4.75;1.90;;;;;;;;;;10558836;28;20588;-82
2023/03/18 09:34:24;;;;;;;5.38;2.95;;;;;;;;;;10548483;27;20426;-85
2023/03/18 09:39:31;;;;;;;7.47;2.30;;;;;;;;;;10548111;27;20096;-83
2023/03/18 09:44:37;;;;;;;8.02;2.65;;;;;;;;;;10555809;27;20036;-83
2023/03/18 09:49:59;;;;;;;5.85;3.03;;;;;;;;;;10551619;27;20044;-83
2023/03/18 09:55:13;;;;;;;10.50;3.05;;;;;;;;;;10568672;28;20044;-83
2023/03/18 10:00:27;;;;;;;6.65;2.80;;;;;;;;;;10543566;28;20089;-87
2023/03/18 10:05:36;;;;;;;7.30;3.22;;;;;;;;;;10561113;28;20039;-81
2023/03/18 10:10:45;;;;;;;5.72;3.05;;;;;;;;;;10553233;27;20099;-83
2023/03/18 10:15:52;;;;;;;6.35;2.70;;;;;;;;;;10559765;27;20638;-83
2023/03/18 10:21:03;;;;;;;5.35;2.60;;;;;;;;;;10559162;27;20697;-82
2023/03/18 10:26:16;;;;;;;6.55;2.72;;;;;;;;;;10556222;27;20113;-85
2023/03/18 10:31:31;;;;;;;6.50;2.80;;;;;;;;;;10557080;28;20040;-84
2023/03/18 10:36:39;;;;;;;4.88;2.20;;;;;;;;;;10571500;27;20046;-83
2023/03/18 10:41:44;;;;;;;6.10;2.63;;;;;;;;;;10579539;27;20043;-84
2023/03/18 10:46:49;;;;;;;3.85;2.55;;;;;;;;;;10600891;27;20643;-85
2023/03/18 10:52:14;;;;;;;4.88;2.80;;;;;;;;;;10586419;27;20050;-84
2023/03/18 10:57:34;;;;;;;6.50;2.88;;;;;;;;;;10603791;27;20099;-85
2023/03/18 11:02:52;;;;;;;6.03;3.30;;;;;;;;;;10604341;28;20059;-85
2023/03/18 11:07:58;;;;;;;4.78;3.03;;;;;;;;;;10595393;27;20052;-84
2023/03/18 11:13:05;;;;;;;4.72;2.85;;;;;;;;;;10564602;28;20067;-85
2023/03/18 11:18:14;;;;;;;5.72;3.13;;;;;;;;;;10568274;27;20055;-84
2023/03/18 11:23:44;;;;;;;4.55;2.88;;;;;;;;;;10564561;28;20040;-84
2023/03/18 11:28:56;;;;;;;5.88;3.08;;;;;;;;;;10558073;28;20032;-84
2023/03/18 11:33:59;;;;;;;;;;;;;;;;;;10551566;28;20050;-85
2023/03/18 11:39:08;;;;;;;5.43;3.28;;;;;;;;;;10561551;28;20048;-86
2023/03/18 11:44:21;;;;;;;8.90;3.28;;;;;;;;;;10553133;28;20469;-84
2023/03/18 11:49:33;;;;;;;5.15;3.13;;;;;;;;;;10572776;28;20040;-85
2023/03/18 11:54:57;;;;;;;5.50;3.20;;;;;;;;;;10568552;28;20059;-85
2023/03/18 12:00:16;;;;;;;5.35;3.00;;;;;;;;;;10565753;27;20035;-85
2023/03/18 12:05:43;;;;;;;9.32;4.00;;;;;;;;;;10560447;27;20055;-84
2023/03/18 12:10:48;;;;;;;5.05;3.10;;;;;;;;;;10556144;28;20047;-85
2023/03/18 12:16:03;;;;;;;5.10;3.05;;;;;;;;;;10553080;28;20055;-84
2023/03/18 12:21:25;;;;;;;6.20;3.13;;;;;;;;;;10566178;28;20051;-84
2023/03/18 12:26:33;;;;;;;4.93;3.00;;;;;;;;;;10557575;28;20052;-84
2023/03/18 12:31:52;;;;;;;5.90;3.22;;;;;;;;;;10564520;28;20198;-84
2023/03/18 12:37:01;;;;;;;;;;;;;;;;;;10572580;27;20158;-84
2023/03/18 12:42:17;;;;;;;7.13;2.97;;;;;;;;;;10546683;28;20018;-85
2023/03/18 12:47:25;;;;;;;8.95;3.20;;;;;;;;;;10567273;28;20132;-74
2023/03/18 12:52:33;;;;;;;3.65;2.75;;;;;;;;;;10549115;28;20397;-75
2023/03/18 12:57:43;;;;;;;5.65;3.00;;;;;;;;;;10544276;27;20089;-77
2023/03/18 13:02:47;;;;;;;;;;;;;;;;;;10539141;27;20040;-72
2023/03/18 13:07:53;;;;;;;5.10;2.65;;;;;;;;;;10562224;27;20288;-70
2023/03/18 13:13:02;;;;;;;6.15;2.78;;;;;;;;;;10562769;27;20066;-72
2023/03/18 13:18:14;;;;;;;5.13;2.75;;;;;;;;;;10555840;27;20043;-72
2023/03/18 13:23:26;;;;;;;5.15;2.90;;;;;;;;;;10572078;27;20035;-80
2023/03/18 13:28:41;;;;;;;7.15;3.10;;;;;;;;;;10534488;27;20417;-81
2023/03/18 13:33:55;;;;;;;6.03;3.10;;;;;;;;;;10559234;27;20423;-81
2023/03/18 13:39:13;;;;;;;5.90;2.75;;;;;;;;;;10552024;28;20109;-80
2023/03/18 13:44:22;;;;;;;6.13;3.13;;;;;;;;;;10557888;27;20489;-82
2023/03/18 13:49:28;;;;;;;5.75;3.10;;;;;;;;;;10551549;28;20439;-79
2023/03/18 13:54:34;;;;;;;4.90;2.90;;;;;;;;;;10544492;27;20035;-81
2023/03/18 13:59:49;;;;;;;5.78;2.53;;;;;;;;;;10558147;28;20094;-80
2023/03/18 14:04:52;;;;;;;5.15;2.70;;;;;;;;;;10560441;27;20038;-80
2023/03/18 14:10:12;;;;;;;5.82;2.60;;;;;;;;;;10546006;27;20039;-81
2023/03/18 14:15:36;;;;;;;3.42;2.20;;;;;;;;;;10553975;28;20036;-75
2023/03/18 14:20:41;;;;;;;5.78;2.55;;;;;;;;;;10538632;28;20405;-75
2023/03/18 14:25:53;;;;;;;3.15;1.83;;;;;;;;;;10558216;28;20036;-75
2023/03/18 14:31:13;;;;;;;5.35;2.20;;;;;;;;;;10548567;28;20031;-76
2023/03/18 14:36:26;;;;;;;5.07;2.30;;;;;;;;;;10554530;28;20058;-76
2023/03/18 14:41:31;;;;;;;5.53;2.10;;;;;;;;;;10554050;27;20055;-75
2023/03/18 14:46:37;;;;;;;3.30;2.00;;;;;;;;;;10533185;28;20078;-75
2023/03/18 14:51:44;;;;;;;4.20;2.33;;;;;;;;;;10548024;27;20122;-76
2023/03/18 14:56:52;;;;;;;6.30;2.00;;;;;;;;;;10534103;28;20036;-76
2023/03/18 15:01:57;;;;;;;6.88;2.33;;;;;;;;;;10546705;28;20039;-77
2023/03/18 15:07:06;;;;;;;6.82;2.20;;;;;;;;;;10555667;27;20074;-76
2023/03/18 15:12:16;;;;;;;6.93;1.95;;;;;;;;;;10548852;28;20390;-76
2023/03/18 15:17:20;;;;;;;6.50;2.42;;;;;;;;;;10551783;28;20052;-77
2023/03/18 15:22:27;;;;;;;5.30;2.28;;;;;;;;;;10536564;28;20088;-76
2023/03/18 15:27:33;;;;;;;4.00;2.17;;;;;;;;;;10562090;28;20108;-75
2023/03/18 15:32:43;;;;;;;5.95;2.70;;;;;;;;;;10565565;27;20046;-80
2023/03/18 15:38:03;;;;;;;10.32;2.78;;;;;;;;;;10540176;28;20188;-82
2023/03/18 15:43:16;;;;;;;8.00;3.20;;;;;;;;;;10548493;28;20444;-85
2023/03/18 15:48:22;;;;;;;6.35;2.85;;;;;;;;;;10552415;27;20050;-82
2023/03/18 15:53:32;;;;;;;5.43;2.42;;;;;;;;;;10579443;27;20046;-82
2023/03/18 15:58:36;;;;;;;6.78;2.90;;;;;;;;;;10591437;27;20050;-82
2023/03/18 16:03:40;;;;;;;8.25;2.90;;;;;;;;;;10575059;28;20044;-80
2023/03/18 16:08:45;;;;;;;;;;;;;;;;;;10557066;27;20380;-80
2023/03/18 16:13:52;;;;;;;6.72;2.72;;;;;;;;;;10563040;28;20010;-80
2023/03/18 16:18:58;;;;;;;6.95;2.60;;;;;;;;;;10575829;27;20055;-80
2023/03/18 16:24:02;;;;;;;6.20;2.88;;;;;;;;;;10562573;28;20050;-83
2023/03/18 16:29:15;;;;;;;9.23;2.60;;;;;;;;;;10535000;27;20043;-83
2023/03/18 16:34:26;;;;;;;8.52;2.83;;;;;;;;;;10547581;28;20089;-83
2023/03/18 16:39:33;;;;;;;8.60;2.63;;;;;;;;;;10562395;28;20131;-83
2023/03/18 16:44:39;;;;;;;5.72;2.53;;;;;;;;;;10557423;28;20116;-83
2023/03/18 16:49:43;;;;;;;8.10;2.63;;;;;;;;;;10578596;28;20378;-83
2023/03/18 16:54:49;;;;;;;8.10;2.67;;;;;;;;;;10562184;28;20037;-84
2023/03/18 16:59:54;;;;;;;8.45;2.92;;;;;;;;;;10571919;28;20042;-83
2023/03/18 17:04:57;;;;;;;8.45;3.15;;;;;;;;;;10570092;28;20044;-83
2023/03/18 17:10:02;;;;;;;6.30;3.05;;;;;;;;;;10572449;28;20044;-84
2023/03/18 17:15:14;;;;;;;9.32;2.92;;;;;;;;;;10551353;28;20039;-82
2023/03/18 17:20:19;;;;;;;8.02;3.28;;;;;;;;;;10573226;28;20047;-82
2023/03/18 17:25:25;;;;;;;8.07;3.83;;;;;;;;;;10565499;28;20058;-81
2023/03/18 17:30:33;;;;;;;9.50;3.42;;;;;;;;;;10566890;28;20040;-82
2023/03/18 17:35:42;;;;;;;8.98;2.83;;;;;;;;;;10556789;28;20036;-82
2023/03/18 17:40:46;;;;;;;7.75;2.80;;;;;;;;;;10575844;28;20048;-83
2023/03/18 17:45:55;;;;;;;6.63;2.72;;;;;;;;;;10575203;28;20237;-82
2023/03/18 17:50:59;;;;;;;7.38;2.90;;;;;;;;;;10577517;27;20081;-82
2023/03/18 17:56:05;;;;;;;5.75;2.60;;;;;;;;;;10566922;27;20057;-82
2023/03/18 18:01:15;;;;;;;7.97;3.42;;;;;;;;;;10574115;28;20044;-83
2023/03/18 18:06:19;;;;;;;7.43;3.10;;;;;;;;;;10582443;28;20098;-83
2023/03/18 18:11:23;;;;;;;15.82;3.45;;;;;;;;;;10593741;28;20145;-84
2023/03/18 18:16:28;;;;;;;8.75;3.47;;;;;;;;;;10573152;28;20112;-82
2023/03/18 18:21:31;;;;;;;10.43;3.92;;;;;;;;;;10577823;28;20040;-84
2023/03/18 18:26:34;;;;;;;11.68;3.55;;;;;;;;;;10547716;28;20049;-84
2023/03/18 18:31:40;;;;;;;12.52;3.80;;;;;;;;;;10567442;28;20082;-83
2023/03/18 18:36:44;;;;;;;9.07;2.97;;;;;;;;;;10543465;28;20501;-83
2023/03/18 18:41:48;;;;;;;7.13;3.65;;;;;;;;;;10571307;28;20071;-83
2023/03/18 18:46:52;;;;;;;;;;;;;;;;;;10549213;28;20039;-82
2023/03/18 18:52:00;;;;;;;11.00;3.47;;;;;;;;;;10577570;28;19976;-84
2023/03/18 18:57:07;;;;;;;11.52;3.35;;;;;;;;;;10572431;28;20039;-85
2023/03/18 19:02:25;;;;;;;10.40;3.28;;;;;;;;;;10565030;28;20094;-86
2023/03/18 19:07:32;;;;;;;10.82;3.58;;;;;;;;;;10542341;28;20047;-86
2023/03/18 19:12:39;;;;;;;11.43;3.83;;;;;;;;;;10537886;28;20405;-84
2023/03/18 19:17:44;;;;;;;10.23;4.28;;;;;;;;;;10541400;28;20040;-86
2023/03/18 19:22:50;;;;;;;12.55;4.55;;;;;;;;;;10550432;27;20377;-83
2023/03/18 19:27:53;;;;;;;12.73;5.10;;;;;;;;;;10538787;27;20055;-83
2023/03/18 19:32:58;;;;;;;11.77;4.45;;;;;;;;;;10526266;27;20610;-83
2023/03/18 19:38:04;;;;;;;11.68;4.80;;;;;;;;;;10533374;28;20419;-83
2023/03/18 19:43:16;;;;;;;17.65;7.63;;;;;;;;;;10569351;28;20035;-83
2023/03/18 19:48:29;;;;;;;14.02;6.13;;;;;;;;;;10534869;27;20044;-82
2023/03/18 19:53:44;;;;;;;20.33;5.78;;;;;;;;;;10573545;27;20065;-82
2023/03/18 19:58:58;;;;;;;14.02;4.50;;;;;;;;;;10554655;28;20044;-82
2023/03/18 20:04:06;;;;;;;12.40;4.78;;;;;;;;;;10534473;27;20042;-82
2023/03/18 20:09:11;;;;;;;10.48;4.00;;;;;;;;;;10534579;28;20051;-83
2023/03/18 20:14:36;;;;;;;10.43;4.70;;;;;;;;;;10559654;28;20039;-83
2023/03/18 20:19:50;;;;;;;12.25;5.45;;;;;;;;;;10553122;27;20111;-83
2023/03/18 20:24:57;;;;;;;11.75;5.65;;;;;;;;;;10551713;28;20070;-83
2023/03/18 20:30:00;;;;;;;20.63;7.50;;;;;;;;;;10567564;28;20162;-83
2023/03/18 20:35:05;;;;;;;21.05;7.78;;;;;;;;;;10548045;28;20442;-84
2023/03/18 20:40:17;;;;;;;17.95;7.07;;;;;;;;;;10562562;28;20050;-82
2023/03/18 20:45:24;;;;;;;13.30;5.90;;;;;;;;;;10564144;28;20408;-82
2023/03/18 20:50:36;;;;;;;;;;;;;;;;;;10558405;28;20122;-83
2023/03/18 20:55:51;;;;;;;13.75;5.85;;;;;;;;;;10554461;28;20285;-83
2023/03/18 21:01:04;;;;;;;11.68;6.03;;;;;;;;;;10564518;28;20043;-84
2023/03/18 21:06:11;;;;;;;20.55;6.85;;;;;;;;;;10563921;28;20126;-84
2023/03/18 21:11:22;;;;;;;14.48;5.72;;;;;;;;;;10566772;28;20042;-83
2023/03/18 21:16:26;;;;;;;19.42;5.40;;;;;;;;;;10564864;28;20105;-83
2023/03/18 21:21:32;;;;;;;15.27;5.80;;;;;;;;;;10570741;28;20421;-83
2023/03/18 21:26:40;;;;;;;13.45;5.35;;;;;;;;;;10578343;28;20039;-83
2023/03/18 21:31:51;;;;;;;12.32;5.38;;;;;;;;;;10571693;28;20052;-84
2023/03/18 21:36:54;;;;;;;;;;;;;;;;;;10561907;28;20038;-77
2023/03/18 21:41:59;;;;;;;16.65;6.10;;;;;;;;;;10559431;28;19920;-78
2023/03/18 21:47:04;;;;;;;11.63;5.25;;;;;;;;;;10550868;27;20042;-78
2023/03/18 21:52:13;;;;;;;12.35;5.97;;;;;;;;;;10561976;28;20047;-80
2023/03/18 21:57:21;;;;;;;15.77;5.32;;;;;;;;;;10565376;28;20112;-77
2023/03/18 22:02:27;;;;;;;12.90;5.07;;;;;;;;;;10542509;28;20039;-78
2023/03/18 22:07:32;;;;;;;14.95;5.07;;;;;;;;;;10551666;28;20131;-78
2023/03/18 22:12:44;;;;;;;14.35;5.95;;;;;;;;;;10561569;27;20530;-79
2023/03/18 22:17:49;;;;;;;16.40;4.90;;;;;;;;;;10561114;27;20046;-75
2023/03/18 22:22:56;;;;;;;11.90;5.90;;;;;;;;;;10563955;27;20422;-76
2023/03/18 22:28:02;;;;;;;14.52;6.28;;;;;;;;;;10568222;27;20461;-77
2023/03/18 22:33:06;;;;;;;12.13;5.53;;;;;;;;;;10560039;27;20052;-76
2023/03/18 22:38:21;;;;;;;16.42;6.60;;;;;;;;;;10562831;27;20144;-79
2023/03/18 22:43:40;;;;;;;20.70;7.22;;;;;;;;;;10562776;28;20035;-77
2023/03/18 22:48:44;;;;;;;17.25;7.05;;;;;;;;;;10553805;27;20040;-77
2023/03/18 22:53:47;;;;;;;;;;;;;;;;;;10556150;28;20027;-78
2023/03/18 22:58:52;;;;;;;17.85;5.78;;;;;;;;;;10551607;27;19934;-77
2023/03/18 23:03:56;;;;;;;14.60;5.90;;;;;;;;;;10555588;28;20282;-77
2023/03/18 23:09:01;;;;;;;18.75;5.93;;;;;;;;;;10557737;27;20128;-76
2023/03/18 23:14:10;;;;;;;18.38;6.63;;;;;;;;;;10552017;27;20060;-77
2023/03/18 23:19:21;;;;;;;14.95;6.47;;;;;;;;;;10552641;27;20102;-78
2023/03/18 23:24:24;;;;;;;14.88;6.72;;;;;;;;;;10553748;27;20071;-78
2023/03/18 23:29:31;;;;;;;17.45;6.97;;;;;;;;;;10561278;27;20040;-77
2023/03/18 23:34:34;;;;;;;13.10;6.15;;;;;;;;;;10552990;28;20113;-77
2023/03/18 23:39:48;;;;;;;15.35;6.40;;;;;;;;;;10550230;28;20040;-77
2023/03/18 23:44:57;;;;;;;16.23;6.50;;;;;;;;;;10563680;28;20134;-77
2023/03/18 23:50:00;;;;;;;14.93;6.70;;;;;;;;;;10552646;27;20093;-77
2023/03/18 23:55:05;;;;;;;18.77;6.97;;;;;;;;;;10552464;28;20051;-76
